Supadio International Airport

Airport
ICAO code: 
WIOO
IATA Code: 
PNK
Summary
ICAO Region: 
APAC
Territory: 
Location: 
Limbung, West Kalimantan
Serving: 
Ponianak
Elevation: 
10 ft
Coordinates: 
Aerial View: 
0° 9' 2.016" S, 109° 24' 14.004" E
Metar
Observation
WIOO 170300Z 01004KT 9999 SCT011 29/24 Q1011 NOSIG
Station
Pontianak / Supadio
Date/Time
2022-01-17 03:00:00
Wind direction
10°
Wind speed
04 kts
Lowest cloud amount
scattered clouds
Temperature
29°C
Dew point
24°C
Humidity
74%
QNH
1011 hPa
Weather condition
n/a

Supadio International Airport, formerly known as Sei Durian Airport or Sungai Durian Airport, is an international airport located 17 km from Pontianak, West Kalimantan, Indonesia.

Climatology

Tropical Rainforest climate (Köppen climate classification Af)

Runways

Designator Length Width Surface Rops
15/33 2249 30 ASP Yes/Yes
Airport map: 
Aerial View: 

SKYbrary Partners:

Safety knowledge contributed by: